createdAt,value
2023-05-08T00:01:19.911Z,7.57
2023-05-08T00:03:48.052Z,7.57
2023-05-08T00:06:16.249Z,7.57
2023-05-08T00:08:44.223Z,7.56
2023-05-08T00:11:12.117Z,7.55
2023-05-08T00:13:41.791Z,7.50
2023-05-08T00:16:11.693Z,7.46
2023-05-08T00:18:39.754Z,7.47
2023-05-08T00:21:07.904Z,7.44
2023-05-08T00:23:35.861Z,7.44
2023-05-08T00:26:03.705Z,7.41
2023-05-08T00:28:31.563Z,7.36
2023-05-08T00:31:02.822Z,7.30
2023-05-08T00:33:30.800Z,7.26
2023-05-08T00:36:01.924Z,7.25
2023-05-08T00:38:31.890Z,7.22
2023-05-08T00:40:59.968Z,7.16
2023-05-08T00:43:28.563Z,7.15
2023-05-08T00:45:57.335Z,7.10
2023-05-08T00:48:29.732Z,7.03
2023-05-08T00:50:57.997Z,6.99
2023-05-08T00:53:27.692Z,6.96
2023-05-08T00:55:55.755Z,6.93
2023-05-08T00:58:26.948Z,6.91
2023-05-08T01:00:57.504Z,6.89
2023-05-08T01:03:27.105Z,6.89
2023-05-08T01:05:55.686Z,6.84
2023-05-08T01:08:24.004Z,6.86
2023-05-08T01:11:02.646Z,6.83
2023-05-08T01:13:39.854Z,6.80
2023-05-08T01:16:16.265Z,6.75
2023-05-08T01:18:48.801Z,6.69
2023-05-08T01:21:27.199Z,6.63
2023-05-08T01:24:32.344Z,6.61
2023-05-08T01:27:29.622Z,6.59
2023-05-08T01:30:29.180Z,6.54
2023-05-08T01:33:03.081Z,6.52
2023-05-08T01:35:35.740Z,6.49
2023-05-08T01:38:09.874Z,6.53
2023-05-08T01:40:46.498Z,6.55
2023-05-08T01:43:21.148Z,6.54
2023-05-08T01:45:54.052Z,6.49
2023-05-08T01:48:27.200Z,6.46
2023-05-08T01:51:01.793Z,6.43
2023-05-08T01:53:31.905Z,6.40
2023-05-08T01:56:06.859Z,6.41
2023-05-08T01:58:36.858Z,6.41
2023-05-08T02:01:05.348Z,6.47
2023-05-08T02:03:36.202Z,6.50
2023-05-08T02:06:05.778Z,6.53
2023-05-08T02:08:36.656Z,6.53
2023-05-08T02:11:07.191Z,6.55
2023-05-08T02:13:37.344Z,6.52
2023-05-08T02:16:08.319Z,6.49
2023-05-08T02:18:40.119Z,6.49
2023-05-08T02:21:10.641Z,6.48
2023-05-08T02:23:39.735Z,6.46
2023-05-08T02:26:08.158Z,6.43
2023-05-08T02:28:37.960Z,6.38
2023-05-08T02:31:08.208Z,6.36
2023-05-08T02:33:39.710Z,6.28
2023-05-08T02:36:09.380Z,6.29
2023-05-08T02:38:39.810Z,6.24
2023-05-08T02:41:09.204Z,6.20
2023-05-08T02:43:37.365Z,6.16
2023-05-08T02:46:14.203Z,6.16
2023-05-08T02:48:52.257Z,6.15
2023-05-08T02:51:25.589Z,6.15
2023-05-08T02:53:57.364Z,6.14
2023-05-08T02:56:35.395Z,6.12
2023-05-08T02:59:14.285Z,6.09
2023-05-08T03:01:48.340Z,6.07
2023-05-08T03:04:25.859Z,6.02
2023-05-08T03:06:58.092Z,5.99
2023-05-08T03:09:44.161Z,6.04
2023-05-08T03:12:16.645Z,6.04
2023-05-08T03:14:54.128Z,6.04
2023-05-08T03:17:25.343Z,6.05
2023-05-08T03:20:00.699Z,6.06
2023-05-08T03:22:31.442Z,6.04
2023-05-08T03:25:02.613Z,6.05
2023-05-08T03:27:31.542Z,6.09
2023-05-08T03:30:00.882Z,6.12
2023-05-08T03:32:30.332Z,6.15
2023-05-08T03:35:00.558Z,6.15
2023-05-08T03:37:28.875Z,6.18
2023-05-08T03:39:57.068Z,6.17
2023-05-08T03:42:25.698Z,6.18
2023-05-08T03:44:54.147Z,6.21
2023-05-08T03:47:24.357Z,6.22
2023-05-08T03:49:52.584Z,6.26
2023-05-08T03:52:21.974Z,6.31
2023-05-08T03:54:49.760Z,6.37
2023-05-08T03:57:17.880Z,6.43
2023-05-08T03:59:52.302Z,6.53
2023-05-08T04:02:29.825Z,6.66
2023-05-08T04:05:06.956Z,6.74
2023-05-08T04:07:43.644Z,6.77
2023-05-08T04:10:17.298Z,6.82
2023-05-08T04:12:53.736Z,6.93
2023-05-08T04:15:24.199Z,7.02
2023-05-08T04:17:57.044Z,7.12
2023-05-08T04:20:31.338Z,7.21
2023-05-08T04:23:01.157Z,7.32
2023-05-08T04:25:31.989Z,7.37
2023-05-08T04:28:02.695Z,7.45
2023-05-08T04:30:32.274Z,7.55
2023-05-08T04:33:01.843Z,7.62
2023-05-08T04:35:30.173Z,7.74
2023-05-08T04:37:59.740Z,7.89
2023-05-08T04:40:29.409Z,8.04
2023-05-08T04:42:57.665Z,8.12
2023-05-08T04:45:27.100Z,8.20
2023-05-08T04:47:55.074Z,8.28
2023-05-08T04:50:23.270Z,8.38
2023-05-08T04:52:51.168Z,8.49
2023-05-08T04:55:19.282Z,8.61
2023-05-08T04:57:48.642Z,8.75
2023-05-08T05:00:17.348Z,8.96
2023-05-08T05:02:46.295Z,9.18
2023-05-08T05:05:14.743Z,9.52
2023-05-08T05:07:43.314Z,9.97
2023-05-08T05:10:12.549Z,10.71
2023-05-08T05:12:40.772Z,11.81
2023-05-08T05:15:11.796Z,13.18
2023-05-08T05:17:39.971Z,14.59
2023-05-08T05:20:09.147Z,15.79
2023-05-08T05:22:37.264Z,16.23
2023-05-08T05:25:06.036Z,16.40
2023-05-08T05:27:36.156Z,16.59
2023-05-08T05:30:04.259Z,16.94
2023-05-08T05:32:33.597Z,17.90
2023-05-08T05:35:01.615Z,19.03
2023-05-08T05:37:29.512Z,20.20
2023-05-08T05:39:57.342Z,21.34
2023-05-08T05:42:25.412Z,22.41
2023-05-08T05:44:53.397Z,23.34
2023-05-08T05:47:21.322Z,23.87
2023-05-08T05:49:50.838Z,24.44
2023-05-08T05:52:18.800Z,24.75
2023-05-08T05:54:47.150Z,25.05
2023-05-08T05:57:15.076Z,25.45
2023-05-08T05:59:43.511Z,25.52
2023-05-08T06:02:14.592Z,25.73
2023-05-08T06:04:42.670Z,25.93
2023-05-08T06:07:13.407Z,26.17
2023-05-08T06:09:41.292Z,26.60
2023-05-08T06:12:09.405Z,26.39
2023-05-08T06:14:37.847Z,26.18
2023-05-08T06:17:05.848Z,25.99
2023-05-08T06:19:36.038Z,25.75
2023-05-08T06:22:04.017Z,25.57
2023-05-08T06:24:37.854Z,25.53
2023-05-08T06:27:05.945Z,25.61
2023-05-08T06:29:34.028Z,25.93
2023-05-08T06:32:01.971Z,26.46
2023-05-08T06:34:29.953Z,26.95
2023-05-08T06:36:58.080Z,27.36
2023-05-08T06:39:25.925Z,27.62
2023-05-08T06:41:55.179Z,28.15
2023-05-08T06:44:23.097Z,28.44
2023-05-08T06:46:51.036Z,28.77
2023-05-08T06:49:18.980Z,28.26
2023-05-08T06:51:47.282Z,27.61
2023-05-08T06:54:15.180Z,27.33
2023-05-08T06:56:43.312Z,27.60
2023-05-08T06:59:12.893Z,27.56
2023-05-08T07:01:41.768Z,27.32
2023-05-08T07:04:09.857Z,27.09
2023-05-08T07:06:37.691Z,27.52
2023-05-08T07:09:05.822Z,28.63
2023-05-08T07:11:33.672Z,29.31
2023-05-08T07:14:01.526Z,28.94
2023-05-08T07:16:30.853Z,28.35
2023-05-08T07:18:58.882Z,27.51
2023-05-08T07:21:26.880Z,27.17
2023-05-08T07:23:54.952Z,27.40
2023-05-08T07:26:22.862Z,28.20
2023-05-08T07:28:53.840Z,28.70
2023-05-08T07:31:22.338Z,28.84
2023-05-08T07:33:51.591Z,29.15
2023-05-08T07:36:19.413Z,28.73
2023-05-08T07:38:47.373Z,28.77
2023-05-08T07:41:15.254Z,29.51
2023-05-08T07:43:45.267Z,30.54
2023-05-08T07:46:17.932Z,30.96
2023-05-08T07:48:45.843Z,31.53
2023-05-08T07:51:15.447Z,31.01
2023-05-08T07:53:43.283Z,29.95
2023-05-08T07:56:11.180Z,28.81
2023-05-08T07:58:39.092Z,28.22
2023-05-08T08:01:06.986Z,27.71
2023-05-08T08:03:34.954Z,26.61
2023-05-08T08:06:02.946Z,26.56
2023-05-08T08:08:32.208Z,27.21
2023-05-08T08:11:01.291Z,26.97
2023-05-08T08:13:30.934Z,26.06
2023-05-08T08:15:59.015Z,24.79
2023-05-08T08:18:26.927Z,23.65
2023-05-08T08:20:54.745Z,22.60
2023-05-08T08:23:22.628Z,21.97
2023-05-08T08:25:53.712Z,20.99
2023-05-08T08:28:22.680Z,20.06
2023-05-08T08:30:51.207Z,19.54
2023-05-08T08:33:19.362Z,19.27
2023-05-08T08:35:47.370Z,18.80
2023-05-08T08:38:15.340Z,18.39
2023-05-08T08:40:43.869Z,17.53
2023-05-08T08:43:13.300Z,17.04
2023-05-08T08:45:41.266Z,16.93
2023-05-08T08:48:12.695Z,16.82
2023-05-08T08:50:44.904Z,16.87
2023-05-08T08:53:20.284Z,16.90
2023-05-08T08:55:52.558Z,16.70
2023-05-08T08:58:28.669Z,16.26
2023-05-08T09:00:57.521Z,15.93
2023-05-08T09:03:25.589Z,15.77
2023-05-08T09:05:54.572Z,15.63
2023-05-08T09:08:22.677Z,15.45
2023-05-08T09:10:50.626Z,15.36
2023-05-08T09:13:19.873Z,15.22
2023-05-08T09:15:50.616Z,15.15
2023-05-08T09:18:19.344Z,15.10
2023-05-08T09:20:47.735Z,14.95
2023-05-08T09:23:18.104Z,15.10
2023-05-08T09:25:47.263Z,15.93
2023-05-08T09:28:18.920Z,16.88
2023-05-08T09:30:52.972Z,16.93
2023-05-08T09:33:21.425Z,17.02
2023-05-08T09:35:49.637Z,18.40
2023-05-08T09:38:37.940Z,20.72
2023-05-08T09:41:11.100Z,22.66
2023-05-08T09:43:39.644Z,23.89
2023-05-08T09:46:25.490Z,24.43
2023-05-08T09:48:56.031Z,25.59
2023-05-08T09:51:25.216Z,26.96
2023-05-08T09:53:54.174Z,27.67
2023-05-08T09:56:33.133Z,27.90
2023-05-08T09:59:03.264Z,28.03
2023-05-08T10:01:34.332Z,28.10
2023-05-08T10:04:02.755Z,28.28
2023-05-08T10:06:31.278Z,28.44
2023-05-08T10:09:13.039Z,28.62
2023-05-08T10:11:41.773Z,28.28
2023-05-08T10:14:10.158Z,28.17
2023-05-08T10:16:42.963Z,28.47
2023-05-08T10:19:15.579Z,27.14
2023-05-08T10:21:46.756Z,24.93
2023-05-08T10:24:17.678Z,23.41
2023-05-08T10:27:06.271Z,21.66
2023-05-08T10:29:42.626Z,20.14
2023-05-08T10:32:14.403Z,20.04
2023-05-08T10:34:42.829Z,20.67
2023-05-08T10:37:12.806Z,20.43
2023-05-08T10:39:43.689Z,19.79
2023-05-08T10:42:12.334Z,19.10
2023-05-08T10:44:41.003Z,18.52
2023-05-08T10:47:20.396Z,18.05
2023-05-08T10:49:56.757Z,17.71
2023-05-08T10:52:33.132Z,17.86
2023-05-08T10:55:24.375Z,18.14
2023-05-08T10:58:07.561Z,18.58
2023-05-08T11:01:12.551Z,18.78
2023-05-08T11:03:48.382Z,18.45
2023-05-08T11:06:16.515Z,18.70
2023-05-08T11:08:49.680Z,20.02
2023-05-08T11:11:31.570Z,20.93
2023-05-08T11:14:14.848Z,21.74
2023-05-08T11:17:08.087Z,22.28
2023-05-08T11:19:39.188Z,22.80
2023-05-08T11:22:29.957Z,22.65
2023-05-08T11:25:00.448Z,22.16
2023-05-08T11:27:42.795Z,21.37
2023-05-08T11:30:45.627Z,20.54
2023-05-08T11:33:17.709Z,20.22
2023-05-08T11:35:52.975Z,19.58
2023-05-08T11:38:26.158Z,18.87
2023-05-08T11:41:00.543Z,18.29
2023-05-08T11:44:15.176Z,18.26
2023-05-08T11:46:45.297Z,18.75
2023-05-08T11:49:16.619Z,19.07
2023-05-08T11:51:47.072Z,18.89
2023-05-08T11:54:16.895Z,18.47
2023-05-08T11:56:47.720Z,17.91
2023-05-08T11:59:17.156Z,17.33
2023-05-08T12:01:53.619Z,17.09
2023-05-08T12:04:28.425Z,17.03
2023-05-08T12:07:00.338Z,17.03
2023-05-08T12:09:28.955Z,17.10
2023-05-08T12:12:00.103Z,17.17
2023-05-08T12:14:28.297Z,17.21
2023-05-08T12:16:56.234Z,17.26
2023-05-08T12:19:27.044Z,17.21
2023-05-08T12:22:00.475Z,17.10
2023-05-08T12:24:28.559Z,17.15
2023-05-08T12:26:56.788Z,17.22
2023-05-08T12:29:26.799Z,17.08
2023-05-08T12:31:54.970Z,17.06
2023-05-08T12:34:23.193Z,17.02
2023-05-08T12:37:04.647Z,17.00
2023-05-08T12:39:37.615Z,17.00
2023-05-08T12:42:05.879Z,17.04
2023-05-08T12:44:33.807Z,16.87
2023-05-08T12:47:01.801Z,17.02
2023-05-08T12:49:31.060Z,17.13
2023-05-08T12:52:05.136Z,17.02
2023-05-08T12:54:37.588Z,16.80
2023-05-08T12:57:10.663Z,16.71
2023-05-08T12:59:38.593Z,16.70
2023-05-08T13:02:14.306Z,16.83
2023-05-08T13:04:42.374Z,16.89
2023-05-08T13:07:11.890Z,16.98
2023-05-08T13:09:39.890Z,17.10
2023-05-08T13:12:08.274Z,17.18
2023-05-08T13:14:36.159Z,17.38
2023-05-08T13:17:04.014Z,17.56
2023-05-08T13:19:31.888Z,17.56
2023-05-08T13:21:59.756Z,17.47
2023-05-08T13:24:29.048Z,17.14
2023-05-08T13:26:56.849Z,16.87
2023-05-08T13:29:24.688Z,16.82
2023-05-08T13:31:52.789Z,16.87
2023-05-08T13:34:20.791Z,16.80
2023-05-08T13:36:48.714Z,16.78
2023-05-08T13:39:16.592Z,16.74
2023-05-08T13:41:45.862Z,16.66
2023-05-08T13:44:13.630Z,16.74
2023-05-08T13:46:41.465Z,16.75
2023-05-08T13:49:09.264Z,16.92
2023-05-08T13:51:37.174Z,17.10
2023-05-08T13:54:05.348Z,17.21
2023-05-08T13:56:33.296Z,17.14
2023-05-08T13:59:02.504Z,17.09
2023-05-08T14:01:30.401Z,17.01
2023-05-08T14:03:58.876Z,16.80
2023-05-08T14:06:26.947Z,16.53
2023-05-08T14:08:56.898Z,16.35
2023-05-08T14:11:25.528Z,16.28
2023-05-08T14:13:53.383Z,16.23
2023-05-08T14:16:22.911Z,16.26
2023-05-08T14:18:51.392Z,16.28
2023-05-08T14:21:19.232Z,16.24
2023-05-08T14:23:47.213Z,16.19
2023-05-08T14:26:15.131Z,16.14
2023-05-08T14:28:43.193Z,16.12
2023-05-08T14:31:11.515Z,16.09
2023-05-08T14:33:40.783Z,16.03
2023-05-08T14:36:09.733Z,16.00
2023-05-08T14:38:37.740Z,15.95
2023-05-08T14:41:05.792Z,15.87
2023-05-08T14:43:33.877Z,15.87
2023-05-08T14:46:01.851Z,15.86
2023-05-08T14:48:29.704Z,15.84
2023-05-08T14:50:58.969Z,15.87
2023-05-08T14:53:27.002Z,15.79
2023-05-08T14:56:07.373Z,15.69
2023-05-08T14:58:35.508Z,15.62
2023-05-08T15:01:03.317Z,15.61
2023-05-08T15:03:31.372Z,15.61
2023-05-08T15:06:00.705Z,15.59
2023-05-08T15:08:28.616Z,15.62
2023-05-08T15:10:57.472Z,15.69
2023-05-08T15:13:25.417Z,15.72
2023-05-08T15:15:53.531Z,15.70
2023-05-08T15:18:21.363Z,15.71
2023-05-08T15:20:49.258Z,15.63
2023-05-08T15:23:20.371Z,15.61
2023-05-08T15:25:49.655Z,15.63
2023-05-08T15:28:17.495Z,15.63
2023-05-08T15:30:47.070Z,15.61
2023-05-08T15:33:15.046Z,15.62
2023-05-08T15:35:43.390Z,15.60
2023-05-08T15:38:11.767Z,15.53
2023-05-08T15:40:41.062Z,15.48
2023-05-08T15:43:08.913Z,15.44
2023-05-08T15:45:36.768Z,15.39
2023-05-08T15:48:04.842Z,15.31
2023-05-08T15:50:32.815Z,15.22
2023-05-08T15:53:00.789Z,15.19
2023-05-08T15:55:28.671Z,15.21
2023-05-08T15:57:57.921Z,15.27
2023-05-08T16:00:33.359Z,15.26
2023-05-08T16:03:08.985Z,15.26
2023-05-08T16:05:36.890Z,15.23
2023-05-08T16:08:05.952Z,15.27
2023-05-08T16:10:35.166Z,15.25
2023-05-08T16:13:04.658Z,15.20
2023-05-08T16:15:32.605Z,15.18
2023-05-08T16:18:00.671Z,15.17
2023-05-08T16:20:30.264Z,15.16
2023-05-08T16:22:59.361Z,15.10
2023-05-08T16:25:27.356Z,15.07
2023-05-08T16:27:55.377Z,15.04
2023-05-08T16:30:27.590Z,15.04
2023-05-08T16:32:55.492Z,15.05
2023-05-08T16:35:24.063Z,15.03
2023-05-08T16:37:52.157Z,15.01
2023-05-08T16:40:20.138Z,15.04
2023-05-08T16:42:48.015Z,14.99
2023-05-08T16:45:15.897Z,14.96
2023-05-08T16:47:45.811Z,14.96
2023-05-08T16:50:13.857Z,14.94
2023-05-08T16:52:41.806Z,14.89
2023-05-08T16:55:11.353Z,14.88
2023-05-08T16:57:40.981Z,14.85
2023-05-08T17:00:09.799Z,14.79
2023-05-08T17:02:37.710Z,14.72
2023-05-08T17:05:08.017Z,14.67
2023-05-08T17:07:35.863Z,14.61
2023-05-08T17:10:03.905Z,14.60
2023-05-08T17:12:31.737Z,14.56
2023-05-08T17:15:00.067Z,14.50
2023-05-08T17:17:28.260Z,14.48
2023-05-08T17:19:56.511Z,14.42
2023-05-08T17:22:26.300Z,14.35
2023-05-08T17:24:54.725Z,14.32
2023-05-08T17:27:23.112Z,14.31
2023-05-08T17:29:51.068Z,14.27
2023-05-08T17:32:21.084Z,14.21
2023-05-08T17:34:49.006Z,14.16
2023-05-08T17:37:17.296Z,14.11
2023-05-08T17:39:46.631Z,14.06
2023-05-08T17:42:14.654Z,14.05
2023-05-08T17:44:42.592Z,14.02
2023-05-08T17:47:10.851Z,14.03
2023-05-08T17:49:38.960Z,14.02
2023-05-08T17:52:07.671Z,13.99
2023-05-08T17:54:35.912Z,13.98
2023-05-08T17:57:05.216Z,13.95
2023-05-08T17:59:33.047Z,13.98
2023-05-08T18:02:01.049Z,13.98
2023-05-08T18:04:28.951Z,13.96
2023-05-08T18:06:56.813Z,13.99
2023-05-08T18:09:24.640Z,13.98
2023-05-08T18:11:52.546Z,13.94
2023-05-08T18:14:22.265Z,13.92
2023-05-08T18:16:50.142Z,13.90
2023-05-08T18:19:18.026Z,13.87
2023-05-08T18:21:45.860Z,13.83
2023-05-08T18:24:13.870Z,13.79
2023-05-08T18:26:41.797Z,13.76
2023-05-08T18:29:09.807Z,13.73
2023-05-08T18:31:39.076Z,13.69
2023-05-08T18:34:07.023Z,13.68
2023-05-08T18:36:35.378Z,13.65
2023-05-08T18:39:04.024Z,13.61
2023-05-08T18:41:31.876Z,13.58
2023-05-08T18:44:01.487Z,13.60
2023-05-08T18:46:29.373Z,13.61
2023-05-08T18:48:58.883Z,13.61
2023-05-08T18:51:26.778Z,13.61
2023-05-08T18:53:57.299Z,13.61
2023-05-08T18:56:25.989Z,13.60
2023-05-08T18:58:54.863Z,13.62
2023-05-08T19:01:23.020Z,13.61
2023-05-08T19:03:51.137Z,13.58
2023-05-08T19:06:20.654Z,13.55
2023-05-08T19:08:48.630Z,13.53
2023-05-08T19:11:17.063Z,13.51
2023-05-08T19:13:45.156Z,13.51
2023-05-08T19:16:15.119Z,13.49
2023-05-08T19:18:43.299Z,13.49
2023-05-08T19:21:11.179Z,13.48
2023-05-08T19:23:40.590Z,13.48
2023-05-08T19:26:09.163Z,13.43
2023-05-08T19:28:37.048Z,13.43
2023-05-08T19:31:05.490Z,13.38
2023-05-08T19:33:35.268Z,13.39
2023-05-08T19:36:03.310Z,13.38
2023-05-08T19:38:31.236Z,13.33
2023-05-08T19:41:00.580Z,13.32
2023-05-08T19:43:28.467Z,13.26
2023-05-08T19:45:57.226Z,13.21
2023-05-08T19:48:26.130Z,13.16
2023-05-08T19:50:55.178Z,13.14
2023-05-08T19:53:23.460Z,13.11
2023-05-08T19:55:51.379Z,13.06
2023-05-08T19:58:20.622Z,13.04
2023-05-08T20:00:51.815Z,12.98
2023-05-08T20:03:20.319Z,12.94
2023-05-08T20:05:55.573Z,12.91
2023-05-08T20:08:24.092Z,12.83
2023-05-08T20:10:52.352Z,12.83
2023-05-08T20:13:22.100Z,12.85
2023-05-08T20:15:50.009Z,12.82
2023-05-08T20:18:17.930Z,12.79
2023-05-08T20:20:46.214Z,12.74
2023-05-08T20:23:14.567Z,12.72
2023-05-08T20:25:46.080Z,12.68
2023-05-08T20:28:13.975Z,12.67
2023-05-08T20:30:44.586Z,12.67
2023-05-08T20:33:14.039Z,12.64
2023-05-08T20:35:42.006Z,12.65
2023-05-08T20:38:09.935Z,12.61
2023-05-08T20:40:37.888Z,12.58
2023-05-08T20:43:06.170Z,12.57
2023-05-08T20:45:34.067Z,12.55
2023-05-08T20:48:06.456Z,12.49
2023-05-08T20:50:34.375Z,12.44
2023-05-08T20:53:02.217Z,12.35
2023-05-08T20:55:30.074Z,12.32
2023-05-08T20:57:59.454Z,12.26
2023-05-08T21:00:27.861Z,12.22
2023-05-08T21:02:56.228Z,12.18
2023-05-08T21:05:26.110Z,12.14
2023-05-08T21:07:58.477Z,12.09
2023-05-08T21:10:28.733Z,12.08
2023-05-08T21:12:56.732Z,12.04
2023-05-08T21:15:24.899Z,12.03
2023-05-08T21:17:53.197Z,12.00
2023-05-08T21:20:21.754Z,11.96
2023-05-08T21:22:52.032Z,11.97
2023-05-08T21:25:21.545Z,11.94
2023-05-08T21:27:54.062Z,11.91
2023-05-08T21:30:23.573Z,11.88
2023-05-08T21:32:51.814Z,11.84
2023-05-08T21:35:19.930Z,11.83
2023-05-08T21:37:48.107Z,11.80
2023-05-08T21:40:17.948Z,11.76
2023-05-08T21:42:46.053Z,11.70
2023-05-08T21:45:14.203Z,11.68
2023-05-08T21:47:42.398Z,11.66
2023-05-08T21:50:11.265Z,11.61
2023-05-08T21:52:39.063Z,11.57
2023-05-08T21:55:08.766Z,11.51
2023-05-08T21:57:38.473Z,11.50
2023-05-08T22:00:08.286Z,11.47
2023-05-08T22:02:36.470Z,11.45
2023-05-08T22:05:04.721Z,11.45
2023-05-08T22:07:32.785Z,11.42
2023-05-08T22:10:00.773Z,11.41
2023-05-08T22:12:28.534Z,11.38
2023-05-08T22:14:57.716Z,11.34
2023-05-08T22:17:25.581Z,11.31
2023-05-08T22:19:53.426Z,11.26
2023-05-08T22:22:21.209Z,11.23
2023-05-08T22:24:49.067Z,11.19
2023-05-08T22:27:17.212Z,11.11
2023-05-08T22:29:45.137Z,11.07
2023-05-08T22:32:15.492Z,11.04
2023-05-08T22:34:43.319Z,10.99
2023-05-08T22:37:11.209Z,10.94
2023-05-08T22:39:39.171Z,10.88
2023-05-08T22:42:07.387Z,10.86
2023-05-08T22:44:35.410Z,10.84
2023-05-08T22:47:03.890Z,10.85
2023-05-08T22:49:33.332Z,10.82
2023-05-08T22:52:01.254Z,10.76
2023-05-08T22:54:29.101Z,10.70
2023-05-08T22:56:56.960Z,10.68
2023-05-08T22:59:25.226Z,10.66
2023-05-08T23:01:53.136Z,10.63
2023-05-08T23:04:21.670Z,10.61
2023-05-08T23:06:53.829Z,10.60
2023-05-08T23:09:21.707Z,10.59
2023-05-08T23:11:50.046Z,10.55
2023-05-08T23:14:17.961Z,10.51
2023-05-08T23:16:46.138Z,10.48
2023-05-08T23:19:14.030Z,10.44
2023-05-08T23:21:41.833Z,10.37
2023-05-08T23:24:11.095Z,10.32
2023-05-08T23:26:41.362Z,10.32
2023-05-08T23:29:10.120Z,10.30
2023-05-08T23:31:38.022Z,10.26
2023-05-08T23:34:05.888Z,10.22
2023-05-08T23:36:34.421Z,10.15
2023-05-08T23:39:02.285Z,10.14
2023-05-08T23:41:32.356Z,10.10
2023-05-08T23:44:00.204Z,10.06
2023-05-08T23:46:28.133Z,10.03
2023-05-08T23:48:56.075Z,10.03
2023-05-08T23:51:24.280Z,10.03
2023-05-08T23:53:52.110Z,10.03
2023-05-08T23:56:19.960Z,10.00
2023-05-08T23:58:49.157Z,9.95
